Terminal Aerodrome Forecast
Issued by NWS

Home | Current Version | Previous Version | Text Only | Print | Product List | Glossary On
Versions: 1 2 3 4 5 6 7 8 9 10 11 12
000
FTPQ31 PGUM 241725
TAFGUM
TAF

TAF
PTRO 241725Z 2418/2518 VRB04KT P6SM VCSH SCT016 BKN120
     FM250100 05008KT P6SM VCSH SCT016 SCT030 BKN120=

USA.gov is the U.S. government's official web portal to all federal, state and local government web resources and services.